logo
Search for airport 
image banner adimage banner adimage banner ad
image banner ad

SNAT - Nuclep

Located in Itaguaí, Brazil

ICAO - SNAT, IATA -

Data provided by Airmate  

General information

Coordinates: S22°52'60" W43°49'35"
Elevation is 19 feet MSL.
 
View others Airports in Ceará

Operational data

Special qualification required
Current time UTC:
Current local time:
Weather at : SBSC - Campo Nero Moura ( 12 km )
METAR: SBSC 131500Z 04004KT 9999 SCT025 31/22 Q1016
TAF: TAF SBSC 130900Z 1312/1324 08004KT 9999 SCT025 TX29/1318Z TN24/1324Z TEMPO 1317/1321 12014KT RMK PFO
View NOTAMs / SUP AIP / TFR affecting this airport [VIEW]
Communications frequencies: [VIEW]

Runways:

Airport contact information

Address: Itaguaí Brazil

Satellite view of SNAT